sensor_id;sensor_type;location;lat;lon;timestamp;temperature;humidity
5154;DHT22;2595;53.584;10.084;2022-12-24T00:00:00;7.10;99.90
5154;DHT22;2595;53.584;10.084;2022-12-24T00:02:26;7.10;99.90
5154;DHT22;2595;53.584;10.084;2022-12-24T00:04:52;7.10;99.90
5154;DHT22;2595;53.584;10.084;2022-12-24T00:07:17;7.10;99.90
5154;DHT22;2595;53.584;10.084;2022-12-24T00:09:43;7.10;99.90
5154;DHT22;2595;53.584;10.084;2022-12-24T00:12:09;7.10;99.90
5154;DHT22;2595;53.584;10.084;2022-12-24T00:14:34;7.10;99.90
5154;DHT22;2595;53.584;10.084;2022-12-24T00:17:00;7.10;99.90
5154;DHT22;2595;53.584;10.084;2022-12-24T00:19:25;7.10;99.90
5154;DHT22;2595;53.584;10.084;2022-12-24T00:21:51;7.10;99.90
5154;DHT22;2595;53.584;10.084;2022-12-24T00:24:16;7.00;99.90
5154;DHT22;2595;53.584;10.084;2022-12-24T00:26:42;7.10;99.90
5154;DHT22;2595;53.584;10.084;2022-12-24T00:29:09;7.00;99.90
5154;DHT22;2595;53.584;10.084;2022-12-24T00:31:35;7.00;99.90
5154;DHT22;2595;53.584;10.084;2022-12-24T00:34:00;7.00;99.90
5154;DHT22;2595;53.584;10.084;2022-12-24T00:36:26;6.90;99.90
5154;DHT22;2595;53.584;10.084;2022-12-24T00:38:52;7.00;99.90
5154;DHT22;2595;53.584;10.084;2022-12-24T00:41:17;7.00;99.90
5154;DHT22;2595;53.584;10.084;2022-12-24T00:43:53;7.00;99.90
5154;DHT22;2595;53.584;10.084;2022-12-24T00:46:20;7.00;99.90
5154;DHT22;2595;53.584;10.084;2022-12-24T00:48:46;6.90;99.90
5154;DHT22;2595;53.584;10.084;2022-12-24T00:51:12;7.00;99.90
5154;DHT22;2595;53.584;10.084;2022-12-24T00:53:38;7.00;99.90
5154;DHT22;2595;53.584;10.084;2022-12-24T00:56:03;7.00;99.90
5154;DHT22;2595;53.584;10.084;2022-12-24T00:58:29;7.00;99.90
5154;DHT22;2595;53.584;10.084;2022-12-24T01:00:54;7.00;99.90
5154;DHT22;2595;53.584;10.084;2022-12-24T01:03:20;7.00;99.90
5154;DHT22;2595;53.584;10.084;2022-12-24T01:05:46;6.90;99.90
5154;DHT22;2595;53.584;10.084;2022-12-24T01:08:12;6.90;99.90
5154;DHT22;2595;53.584;10.084;2022-12-24T01:10:38;7.00;99.90
5154;DHT22;2595;53.584;10.084;2022-12-24T01:13:04;7.00;99.90
5154;DHT22;2595;53.584;10.084;2022-12-24T01:15:29;6.90;99.90
5154;DHT22;2595;53.584;10.084;2022-12-24T01:17:55;6.90;99.90
5154;DHT22;2595;53.584;10.084;2022-12-24T01:20:21;6.90;99.90
5154;DHT22;2595;53.584;10.084;2022-12-24T01:22:46;6.90;99.90
5154;DHT22;2595;53.584;10.084;2022-12-24T01:25:13;6.90;99.90
5154;DHT22;2595;53.584;10.084;2022-12-24T01:27:39;6.90;99.90
5154;DHT22;2595;53.584;10.084;2022-12-24T01:30:06;6.90;99.90
5154;DHT22;2595;53.584;10.084;2022-12-24T01:32:33;6.90;99.90
5154;DHT22;2595;53.584;10.084;2022-12-24T01:34:58;6.80;99.90
5154;DHT22;2595;53.584;10.084;2022-12-24T01:37:24;6.90;99.90
5154;DHT22;2595;53.584;10.084;2022-12-24T01:39:50;6.90;99.90
5154;DHT22;2595;53.584;10.084;2022-12-24T01:42:21;6.90;99.90
5154;DHT22;2595;53.584;10.084;2022-12-24T01:51:34;6.90;99.90
5154;DHT22;2595;53.584;10.084;2022-12-24T01:54:06;6.80;99.90
5154;DHT22;2595;53.584;10.084;2022-12-24T01:56:35;6.90;99.90
5154;DHT22;2595;53.584;10.084;2022-12-24T01:59:05;6.90;99.90
5154;DHT22;2595;53.584;10.084;2022-12-24T02:01:32;6.80;99.90
5154;DHT22;2595;53.584;10.084;2022-12-24T02:03:59;6.90;99.90
5154;DHT22;2595;53.584;10.084;2022-12-24T02:06:26;6.80;99.90
5154;DHT22;2595;53.584;10.084;2022-12-24T02:08:52;6.80;99.90
5154;DHT22;2595;53.584;10.084;2022-12-24T02:11:21;6.90;99.90
5154;DHT22;2595;53.584;10.084;2022-12-24T02:13:50;6.80;99.90
5154;DHT22;2595;53.584;10.084;2022-12-24T02:16:49;6.80;99.90
5154;DHT22;2595;53.584;10.084;2022-12-24T02:22:33;6.80;99.90
5154;DHT22;2595;53.584;10.084;2022-12-24T02:28:01;6.80;99.90
5154;DHT22;2595;53.584;10.084;2022-12-24T02:30:40;6.80;99.90
5154;DHT22;2595;53.584;10.084;2022-12-24T02:33:17;6.90;99.90
5154;DHT22;2595;53.584;10.084;2022-12-24T02:36:31;6.90;99.90
5154;DHT22;2595;53.584;10.084;2022-12-24T02:39:02;6.90;99.90
5154;DHT22;2595;53.584;10.084;2022-12-24T02:41:40;6.90;99.90
5154;DHT22;2595;53.584;10.084;2022-12-24T02:44:28;6.90;99.90
5154;DHT22;2595;53.584;10.084;2022-12-24T02:46:56;6.80;99.90
5154;DHT22;2595;53.584;10.084;2022-12-24T02:49:23;6.80;99.90
5154;DHT22;2595;53.584;10.084;2022-12-24T02:51:49;6.80;99.90
5154;DHT22;2595;53.584;10.084;2022-12-24T02:54:14;6.80;99.90
5154;DHT22;2595;53.584;10.084;2022-12-24T02:57:07;6.80;99.90
5154;DHT22;2595;53.584;10.084;2022-12-24T03:02:23;6.70;99.90
5154;DHT22;2595;53.584;10.084;2022-12-24T03:05:08;6.70;99.90
5154;DHT22;2595;53.584;10.084;2022-12-24T03:07:48;6.80;99.90
5154;DHT22;2595;53.584;10.084;2022-12-24T03:10:28;6.80;99.90
5154;DHT22;2595;53.584;10.084;2022-12-24T03:13:02;6.80;99.90
5154;DHT22;2595;53.584;10.084;2022-12-24T03:15:29;6.70;99.90
5154;DHT22;2595;53.584;10.084;2022-12-24T03:17:59;6.70;99.90
5154;DHT22;2595;53.584;10.084;2022-12-24T03:20:34;6.70;99.90
5154;DHT22;2595;53.584;10.084;2022-12-24T03:23:00;6.70;99.90
5154;DHT22;2595;53.584;10.084;2022-12-24T03:25:26;6.70;99.90
5154;DHT22;2595;53.584;10.084;2022-12-24T03:27:53;6.70;99.90
5154;DHT22;2595;53.584;10.084;2022-12-24T03:30:20;6.70;99.90
5154;DHT22;2595;53.584;10.084;2022-12-24T03:32:46;6.70;99.90
5154;DHT22;2595;53.584;10.084;2022-12-24T03:35:12;6.70;99.90
5154;DHT22;2595;53.584;10.084;2022-12-24T03:37:38;6.80;99.90
5154;DHT22;2595;53.584;10.084;2022-12-24T03:40:05;6.80;99.90
5154;DHT22;2595;53.584;10.084;2022-12-24T03:42:31;6.80;99.90
5154;DHT22;2595;53.584;10.084;2022-12-24T03:44:56;6.80;99.90
5154;DHT22;2595;53.584;10.084;2022-12-24T03:47:22;6.80;99.90
5154;DHT22;2595;53.584;10.084;2022-12-24T03:49:48;6.80;99.90
5154;DHT22;2595;53.584;10.084;2022-12-24T03:52:13;6.70;99.90
5154;DHT22;2595;53.584;10.084;2022-12-24T03:54:39;6.70;99.90
5154;DHT22;2595;53.584;10.084;2022-12-24T03:57:05;6.70;99.90
5154;DHT22;2595;53.584;10.084;2022-12-24T03:59:30;6.70;99.90
5154;DHT22;2595;53.584;10.084;2022-12-24T04:01:56;6.70;99.90
5154;DHT22;2595;53.584;10.084;2022-12-24T04:04:22;6.70;99.90
5154;DHT22;2595;53.584;10.084;2022-12-24T04:06:47;6.70;99.90
5154;DHT22;2595;53.584;10.084;2022-12-24T04:09:13;6.70;99.90
5154;DHT22;2595;53.584;10.084;2022-12-24T04:11:38;6.70;99.90
5154;DHT22;2595;53.584;10.084;2022-12-24T04:14:04;6.70;99.90
5154;DHT22;2595;53.584;10.084;2022-12-24T04:16:30;6.80;99.90
5154;DHT22;2595;53.584;10.084;2022-12-24T04:18:55;6.70;99.90
5154;DHT22;2595;53.584;10.084;2022-12-24T04:21:21;6.80;99.90
5154;DHT22;2595;53.584;10.084;2022-12-24T04:23:47;6.70;99.90
5154;DHT22;2595;53.584;10.084;2022-12-24T04:26:12;6.70;99.90
5154;DHT22;2595;53.584;10.084;2022-12-24T04:28:39;6.70;99.90
5154;DHT22;2595;53.584;10.084;2022-12-24T04:31:08;6.70;99.90
5154;DHT22;2595;53.584;10.084;2022-12-24T04:33:35;6.70;99.90
5154;DHT22;2595;53.584;10.084;2022-12-24T04:36:02;6.70;99.90
5154;DHT22;2595;53.584;10.084;2022-12-24T04:38:28;6.60;99.90
5154;DHT22;2595;53.584;10.084;2022-12-24T04:41:02;6.70;99.90
5154;DHT22;2595;53.584;10.084;2022-12-24T04:43:28;6.60;99.90
5154;DHT22;2595;53.584;10.084;2022-12-24T04:45:54;6.70;99.90
5154;DHT22;2595;53.584;10.084;2022-12-24T04:48:19;6.70;99.90
5154;DHT22;2595;53.584;10.084;2022-12-24T04:50:45;6.70;99.90
5154;DHT22;2595;53.584;10.084;2022-12-24T04:53:10;6.70;99.90
5154;DHT22;2595;53.584;10.084;2022-12-24T04:55:43;6.60;99.90
5154;DHT22;2595;53.584;10.084;2022-12-24T04:58:09;6.70;99.90
5154;DHT22;2595;53.584;10.084;2022-12-24T05:00:34;6.70;99.90
5154;DHT22;2595;53.584;10.084;2022-12-24T05:03:00;6.70;99.90
5154;DHT22;2595;53.584;10.084;2022-12-24T05:05:25;6.70;99.90
5154;DHT22;2595;53.584;10.084;2022-12-24T05:07:51;6.70;99.90
5154;DHT22;2595;53.584;10.084;2022-12-24T05:10:17;6.70;99.90
5154;DHT22;2595;53.584;10.084;2022-12-24T05:12:42;6.70;99.90
5154;DHT22;2595;53.584;10.084;2022-12-24T05:15:08;6.70;99.90
5154;DHT22;2595;53.584;10.084;2022-12-24T05:17:33;6.70;99.90
5154;DHT22;2595;53.584;10.084;2022-12-24T05:19:59;6.70;99.90
5154;DHT22;2595;53.584;10.084;2022-12-24T05:22:24;6.70;99.90
5154;DHT22;2595;53.584;10.084;2022-12-24T05:25:09;6.70;99.90
5154;DHT22;2595;53.584;10.084;2022-12-24T05:27:53;6.70;99.90
5154;DHT22;2595;53.584;10.084;2022-12-24T05:30:19;6.70;99.90
5154;DHT22;2595;53.584;10.084;2022-12-24T05:32:45;6.70;99.90
5154;DHT22;2595;53.584;10.084;2022-12-24T05:35:10;6.70;99.90
5154;DHT22;2595;53.584;10.084;2022-12-24T05:37:36;6.70;99.90
5154;DHT22;2595;53.584;10.084;2022-12-24T05:40:01;6.70;99.90
5154;DHT22;2595;53.584;10.084;2022-12-24T05:42:27;6.70;99.90
5154;DHT22;2595;53.584;10.084;2022-12-24T05:44:52;6.70;99.90
5154;DHT22;2595;53.584;10.084;2022-12-24T05:47:18;6.70;99.90
5154;DHT22;2595;53.584;10.084;2022-12-24T05:49:43;6.70;99.90
5154;DHT22;2595;53.584;10.084;2022-12-24T05:52:09;6.70;99.90
5154;DHT22;2595;53.584;10.084;2022-12-24T05:54:35;6.70;99.90
5154;DHT22;2595;53.584;10.084;2022-12-24T05:57:00;6.70;99.90
5154;DHT22;2595;53.584;10.084;2022-12-24T05:59:26;6.70;99.90
5154;DHT22;2595;53.584;10.084;2022-12-24T06:01:51;6.60;99.90
5154;DHT22;2595;53.584;10.084;2022-12-24T06:04:17;6.60;99.90
5154;DHT22;2595;53.584;10.084;2022-12-24T06:06:42;6.60;99.90
5154;DHT22;2595;53.584;10.084;2022-12-24T06:09:08;6.70;99.90
5154;DHT22;2595;53.584;10.084;2022-12-24T06:11:34;6.70;99.90
5154;DHT22;2595;53.584;10.084;2022-12-24T06:14:00;6.70;99.90
5154;DHT22;2595;53.584;10.084;2022-12-24T06:16:25;6.70;99.90
5154;DHT22;2595;53.584;10.084;2022-12-24T06:18:52;6.70;99.90
5154;DHT22;2595;53.584;10.084;2022-12-24T06:21:18;6.70;99.90
5154;DHT22;2595;53.584;10.084;2022-12-24T06:23:45;6.70;99.90
5154;DHT22;2595;53.584;10.084;2022-12-24T06:26:17;6.70;99.90
5154;DHT22;2595;53.584;10.084;2022-12-24T06:28:44;6.60;99.90
5154;DHT22;2595;53.584;10.084;2022-12-24T06:31:12;6.70;99.90
5154;DHT22;2595;53.584;10.084;2022-12-24T06:33:39;6.60;99.90
5154;DHT22;2595;53.584;10.084;2022-12-24T06:36:16;6.60;99.90
5154;DHT22;2595;53.584;10.084;2022-12-24T06:38:42;6.60;99.90
5154;DHT22;2595;53.584;10.084;2022-12-24T06:41:08;6.60;99.90
5154;DHT22;2595;53.584;10.084;2022-12-24T06:43:34;6.60;99.90
5154;DHT22;2595;53.584;10.084;2022-12-24T06:46:00;6.60;99.90
5154;DHT22;2595;53.584;10.084;2022-12-24T06:48:26;6.60;99.90
5154;DHT22;2595;53.584;10.084;2022-12-24T06:50:52;6.60;99.90
5154;DHT22;2595;53.584;10.084;2022-12-24T06:53:18;6.60;99.90
5154;DHT22;2595;53.584;10.084;2022-12-24T06:55:43;6.60;99.90
5154;DHT22;2595;53.584;10.084;2022-12-24T06:58:09;6.60;99.90
5154;DHT22;2595;53.584;10.084;2022-12-24T07:00:35;6.50;99.90
5154;DHT22;2595;53.584;10.084;2022-12-24T07:03:01;6.50;99.90
5154;DHT22;2595;53.584;10.084;2022-12-24T07:05:27;6.50;99.90
5154;DHT22;2595;53.584;10.084;2022-12-24T07:07:53;6.50;99.90
5154;DHT22;2595;53.584;10.084;2022-12-24T07:10:19;6.50;99.90
5154;DHT22;2595;53.584;10.084;2022-12-24T07:12:45;6.50;99.90
5154;DHT22;2595;53.584;10.084;2022-12-24T07:15:11;6.50;99.90
5154;DHT22;2595;53.584;10.084;2022-12-24T07:17:37;6.50;99.90
5154;DHT22;2595;53.584;10.084;2022-12-24T07:20:04;6.50;99.90
5154;DHT22;2595;53.584;10.084;2022-12-24T07:22:30;6.50;99.90
5154;DHT22;2595;53.584;10.084;2022-12-24T07:24:56;6.50;99.90
5154;DHT22;2595;53.584;10.084;2022-12-24T07:27:21;6.50;99.90
5154;DHT22;2595;53.584;10.084;2022-12-24T07:29:47;6.50;99.90
5154;DHT22;2595;53.584;10.084;2022-12-24T07:32:13;6.50;99.90
5154;DHT22;2595;53.584;10.084;2022-12-24T07:34:39;6.50;99.90
5154;DHT22;2595;53.584;10.084;2022-12-24T07:37:05;6.50;99.90
5154;DHT22;2595;53.584;10.084;2022-12-24T07:39:31;6.50;99.90
5154;DHT22;2595;53.584;10.084;2022-12-24T07:41:57;6.50;99.90
5154;DHT22;2595;53.584;10.084;2022-12-24T07:44:22;6.50;99.90
5154;DHT22;2595;53.584;10.084;2022-12-24T07:46:48;6.50;99.90
5154;DHT22;2595;53.584;10.084;2022-12-24T07:49:14;6.50;99.90
5154;DHT22;2595;53.584;10.084;2022-12-24T07:51:39;6.50;99.90
5154;DHT22;2595;53.584;10.084;2022-12-24T07:54:05;6.50;99.90
5154;DHT22;2595;53.584;10.084;2022-12-24T07:56:31;6.50;99.90
5154;DHT22;2595;53.584;10.084;2022-12-24T07:58:57;6.50;99.90
5154;DHT22;2595;53.584;10.084;2022-12-24T08:01:22;6.50;99.90
5154;DHT22;2595;53.584;10.084;2022-12-24T08:03:48;6.50;99.90
5154;DHT22;2595;53.584;10.084;2022-12-24T08:06:16;6.50;99.90
5154;DHT22;2595;53.584;10.084;2022-12-24T08:08:42;6.50;99.90
5154;DHT22;2595;53.584;10.084;2022-12-24T08:11:07;6.50;99.90
5154;DHT22;2595;53.584;10.084;2022-12-24T08:13:33;6.50;99.90
5154;DHT22;2595;53.584;10.084;2022-12-24T08:15:59;6.50;99.90
5154;DHT22;2595;53.584;10.084;2022-12-24T08:18:25;6.50;99.90
5154;DHT22;2595;53.584;10.084;2022-12-24T08:20:51;6.40;99.90
5154;DHT22;2595;53.584;10.084;2022-12-24T08:23:17;6.40;99.90
5154;DHT22;2595;53.584;10.084;2022-12-24T08:25:44;6.50;99.90
5154;DHT22;2595;53.584;10.084;2022-12-24T08:28:09;6.50;99.90
5154;DHT22;2595;53.584;10.084;2022-12-24T08:30:35;6.40;99.90
5154;DHT22;2595;53.584;10.084;2022-12-24T08:33:01;6.50;99.90
5154;DHT22;2595;53.584;10.084;2022-12-24T08:35:27;6.50;99.90
5154;DHT22;2595;53.584;10.084;2022-12-24T08:37:52;6.50;99.90
5154;DHT22;2595;53.584;10.084;2022-12-24T08:40:18;6.50;99.90
5154;DHT22;2595;53.584;10.084;2022-12-24T08:42:44;6.50;99.90
5154;DHT22;2595;53.584;10.084;2022-12-24T08:45:10;6.50;99.90
5154;DHT22;2595;53.584;10.084;2022-12-24T08:47:36;6.50;99.90
5154;DHT22;2595;53.584;10.084;2022-12-24T08:50:03;6.50;99.90
5154;DHT22;2595;53.584;10.084;2022-12-24T08:52:29;6.50;99.90
5154;DHT22;2595;53.584;10.084;2022-12-24T08:54:55;6.50;99.90
5154;DHT22;2595;53.584;10.084;2022-12-24T08:57:20;6.50;99.90
5154;DHT22;2595;53.584;10.084;2022-12-24T08:59:46;6.50;99.90
5154;DHT22;2595;53.584;10.084;2022-12-24T09:02:11;6.50;99.90
5154;DHT22;2595;53.584;10.084;2022-12-24T09:04:38;6.50;99.90
5154;DHT22;2595;53.584;10.084;2022-12-24T09:07:07;6.50;99.90
5154;DHT22;2595;53.584;10.084;2022-12-24T09:09:34;6.60;99.90
5154;DHT22;2595;53.584;10.084;2022-12-24T09:12:00;6.60;99.90
5154;DHT22;2595;53.584;10.084;2022-12-24T09:14:26;6.50;99.90
5154;DHT22;2595;53.584;10.084;2022-12-24T09:16:51;6.50;99.90
5154;DHT22;2595;53.584;10.084;2022-12-24T09:19:17;6.50;99.90
5154;DHT22;2595;53.584;10.084;2022-12-24T09:21:42;6.60;99.90
5154;DHT22;2595;53.584;10.084;2022-12-24T09:24:08;6.60;99.90
5154;DHT22;2595;53.584;10.084;2022-12-24T09:26:34;6.60;99.90
5154;DHT22;2595;53.584;10.084;2022-12-24T09:29:00;6.60;99.90
5154;DHT22;2595;53.584;10.084;2022-12-24T09:31:26;6.60;99.90
5154;DHT22;2595;53.584;10.084;2022-12-24T09:33:53;6.60;99.90
5154;DHT22;2595;53.584;10.084;2022-12-24T09:36:19;6.60;99.90
5154;DHT22;2595;53.584;10.084;2022-12-24T09:38:45;6.60;99.90
5154;DHT22;2595;53.584;10.084;2022-12-24T09:46:59;6.60;99.90
5154;DHT22;2595;53.584;10.084;2022-12-24T09:49:36;6.70;99.90
5154;DHT22;2595;53.584;10.084;2022-12-24T09:52:08;6.70;99.90
5154;DHT22;2595;53.584;10.084;2022-12-24T09:54:47;6.70;99.90
5154;DHT22;2595;53.584;10.084;2022-12-24T09:57:22;6.70;99.90
5154;DHT22;2595;53.584;10.084;2022-12-24T09:59:50;6.60;99.90
5154;DHT22;2595;53.584;10.084;2022-12-24T10:02:17;6.60;99.90
5154;DHT22;2595;53.584;10.084;2022-12-24T10:04:44;6.70;99.90
5154;DHT22;2595;53.584;10.084;2022-12-24T10:07:24;6.70;99.90
5154;DHT22;2595;53.584;10.084;2022-12-24T10:09:56;6.70;99.90
5154;DHT22;2595;53.584;10.084;2022-12-24T10:12:46;6.70;99.90
5154;DHT22;2595;53.584;10.084;2022-12-24T10:18:26;6.70;99.90
5154;DHT22;2595;53.584;10.084;2022-12-24T10:21:15;6.80;99.90
5154;DHT22;2595;53.584;10.084;2022-12-24T10:26:26;6.80;99.90
5154;DHT22;2595;53.584;10.084;2022-12-24T10:29:21;6.80;99.90
5154;DHT22;2595;53.584;10.084;2022-12-24T10:32:03;6.80;99.90
5154;DHT22;2595;53.584;10.084;2022-12-24T10:35:38;6.80;99.90
5154;DHT22;2595;53.584;10.084;2022-12-24T10:37:39;6.80;99.90
5154;DHT22;2595;53.584;10.084;2022-12-24T10:40:07;6.80;99.90
5154;DHT22;2595;53.584;10.084;2022-12-24T10:42:41;6.80;99.90
5154;DHT22;2595;53.584;10.084;2022-12-24T10:45:15;6.80;99.90
5154;DHT22;2595;53.584;10.084;2022-12-24T10:47:43;6.80;99.90
5154;DHT22;2595;53.584;10.084;2022-12-24T10:50:32;6.90;99.90
5154;DHT22;2595;53.584;10.084;2022-12-24T10:53:10;6.90;99.90
5154;DHT22;2595;53.584;10.084;2022-12-24T10:55:38;6.90;99.90
5154;DHT22;2595;53.584;10.084;2022-12-24T10:58:11;6.80;99.90
5154;DHT22;2595;53.584;10.084;2022-12-24T11:00:37;6.90;99.90
5154;DHT22;2595;53.584;10.084;2022-12-24T11:03:22;6.80;99.90
5154;DHT22;2595;53.584;10.084;2022-12-24T11:06:19;6.90;99.90
5154;DHT22;2595;53.584;10.084;2022-12-24T11:08:46;6.90;99.90
5154;DHT22;2595;53.584;10.084;2022-12-24T11:11:19;6.90;99.90
5154;DHT22;2595;53.584;10.084;2022-12-24T11:13:54;6.90;99.90
5154;DHT22;2595;53.584;10.084;2022-12-24T11:16:24;6.90;99.90
5154;DHT22;2595;53.584;10.084;2022-12-24T11:18:53;6.90;99.90
5154;DHT22;2595;53.584;10.084;2022-12-24T11:21:24;6.90;99.90
5154;DHT22;2595;53.584;10.084;2022-12-24T11:24:04;6.90;99.90
5154;DHT22;2595;53.584;10.084;2022-12-24T11:26:32;7.00;99.90
5154;DHT22;2595;53.584;10.084;2022-12-24T11:29:14;7.00;99.90
5154;DHT22;2595;53.584;10.084;2022-12-24T11:31:41;7.00;99.90
5154;DHT22;2595;53.584;10.084;2022-12-24T11:34:28;7.00;99.90
5154;DHT22;2595;53.584;10.084;2022-12-24T11:37:29;7.00;99.90
5154;DHT22;2595;53.584;10.084;2022-12-24T11:39:59;7.00;99.90
5154;DHT22;2595;53.584;10.084;2022-12-24T11:42:31;7.00;99.90
5154;DHT22;2595;53.584;10.084;2022-12-24T11:44:59;7.10;99.90
5154;DHT22;2595;53.584;10.084;2022-12-24T11:47:52;7.10;99.90
5154;DHT22;2595;53.584;10.084;2022-12-24T11:55:53;7.00;99.90
5154;DHT22;2595;53.584;10.084;2022-12-24T12:00:46;7.10;99.90
5154;DHT22;2595;53.584;10.084;2022-12-24T12:03:35;7.00;99.90
5154;DHT22;2595;53.584;10.084;2022-12-24T12:06:08;7.10;99.90
5154;DHT22;2595;53.584;10.084;2022-12-24T12:08:36;7.10;99.90
5154;DHT22;2595;53.584;10.084;2022-12-24T12:11:10;7.10;99.90
5154;DHT22;2595;53.584;10.084;2022-12-24T12:13:36;7.10;99.90
5154;DHT22;2595;53.584;10.084;2022-12-24T12:19:02;7.10;99.90
5154;DHT22;2595;53.584;10.084;2022-12-24T12:21:40;7.10;99.90
5154;DHT22;2595;53.584;10.084;2022-12-24T12:24:29;7.20;99.90
5154;DHT22;2595;53.584;10.084;2022-12-24T12:27:37;7.10;99.90
5154;DHT22;2595;53.584;10.084;2022-12-24T12:30:09;7.10;99.90
5154;DHT22;2595;53.584;10.084;2022-12-24T12:32:52;7.20;99.90
5154;DHT22;2595;53.584;10.084;2022-12-24T12:35:31;7.20;99.90
5154;DHT22;2595;53.584;10.084;2022-12-24T12:38:10;7.20;99.90
5154;DHT22;2595;53.584;10.084;2022-12-24T12:43:51;7.30;99.90
5154;DHT22;2595;53.584;10.084;2022-12-24T12:46:28;7.30;99.90
5154;DHT22;2595;53.584;10.084;2022-12-24T12:54:14;7.30;99.90
5154;DHT22;2595;53.584;10.084;2022-12-24T12:56:48;7.40;99.90
5154;DHT22;2595;53.584;10.084;2022-12-24T12:59:33;7.40;99.90
5154;DHT22;2595;53.584;10.084;2022-12-24T13:05:13;7.40;99.90
5154;DHT22;2595;53.584;10.084;2022-12-24T13:08:18;7.50;99.90
5154;DHT22;2595;53.584;10.084;2022-12-24T13:16:32;7.50;99.90
5154;DHT22;2595;53.584;10.084;2022-12-24T13:21:46;7.50;99.90
5154;DHT22;2595;53.584;10.084;2022-12-24T13:24:24;7.60;99.90
5154;DHT22;2595;53.584;10.084;2022-12-24T13:35:00;7.70;99.90
5154;DHT22;2595;53.584;10.084;2022-12-24T13:50:42;7.80;99.90
5154;DHT22;2595;53.584;10.084;2022-12-24T13:53:35;7.80;99.90
5154;DHT22;2595;53.584;10.084;2022-12-24T13:56:25;7.80;99.90
5154;DHT22;2595;53.584;10.084;2022-12-24T13:59:33;7.80;99.90
5154;DHT22;2595;53.584;10.084;2022-12-24T14:02:01;7.80;99.90
5154;DHT22;2595;53.584;10.084;2022-12-24T14:04:31;7.80;99.90
5154;DHT22;2595;53.584;10.084;2022-12-24T14:07:00;7.80;99.90
5154;DHT22;2595;53.584;10.084;2022-12-24T14:09:26;7.80;99.90
5154;DHT22;2595;53.584;10.084;2022-12-24T14:14:39;7.80;99.90
5154;DHT22;2595;53.584;10.084;2022-12-24T14:19:58;7.80;99.90
5154;DHT22;2595;53.584;10.084;2022-12-24T14:22:33;7.90;99.90
5154;DHT22;2595;53.584;10.084;2022-12-24T14:25:15;7.90;99.90
5154;DHT22;2595;53.584;10.084;2022-12-24T14:27:45;7.90;99.90
5154;DHT22;2595;53.584;10.084;2022-12-24T14:30:19;7.90;99.90
5154;DHT22;2595;53.584;10.084;2022-12-24T14:32:46;7.90;99.90
5154;DHT22;2595;53.584;10.084;2022-12-24T14:37:40;8.00;99.90
5154;DHT22;2595;53.584;10.084;2022-12-24T14:40:07;8.00;99.90
5154;DHT22;2595;53.584;10.084;2022-12-24T14:42:57;8.00;99.90
5154;DHT22;2595;53.584;10.084;2022-12-24T14:45:31;8.00;99.90
5154;DHT22;2595;53.584;10.084;2022-12-24T14:48:27;8.00;99.90
5154;DHT22;2595;53.584;10.084;2022-12-24T14:56:20;8.00;99.90
5154;DHT22;2595;53.584;10.084;2022-12-24T14:58:48;8.00;99.90
5154;DHT22;2595;53.584;10.084;2022-12-24T15:01:25;8.00;99.90
5154;DHT22;2595;53.584;10.084;2022-12-24T15:04:13;8.00;99.90
5154;DHT22;2595;53.584;10.084;2022-12-24T15:06:49;8.00;99.90
5154;DHT22;2595;53.584;10.084;2022-12-24T15:09:25;8.00;99.90
5154;DHT22;2595;53.584;10.084;2022-12-24T15:11:53;8.00;99.90
5154;DHT22;2595;53.584;10.084;2022-12-24T15:14:21;8.00;99.90
5154;DHT22;2595;53.584;10.084;2022-12-24T15:16:56;8.00;99.90
5154;DHT22;2595;53.584;10.084;2022-12-24T15:19:31;8.00;99.90
5154;DHT22;2595;53.584;10.084;2022-12-24T15:21:57;8.00;99.90
5154;DHT22;2595;53.584;10.084;2022-12-24T15:24:24;8.10;99.90
5154;DHT22;2595;53.584;10.084;2022-12-24T15:26:50;8.10;99.90
5154;DHT22;2595;53.584;10.084;2022-12-24T15:29:28;8.10;99.90
5154;DHT22;2595;53.584;10.084;2022-12-24T15:31:58;8.10;99.90
5154;DHT22;2595;53.584;10.084;2022-12-24T15:36:51;8.00;99.90
5154;DHT22;2595;53.584;10.084;2022-12-24T15:39:17;8.00;99.90
5154;DHT22;2595;53.584;10.084;2022-12-24T15:41:43;8.00;99.90
5154;DHT22;2595;53.584;10.084;2022-12-24T15:44:32;8.00;99.90
5154;DHT22;2595;53.584;10.084;2022-12-24T15:47:00;8.10;99.90
5154;DHT22;2595;53.584;10.084;2022-12-24T15:49:28;8.10;99.90
5154;DHT22;2595;53.584;10.084;2022-12-24T15:52:03;8.20;99.90
5154;DHT22;2595;53.584;10.084;2022-12-24T15:54:29;8.20;99.90
5154;DHT22;2595;53.584;10.084;2022-12-24T15:56:56;8.20;99.90
5154;DHT22;2595;53.584;10.084;2022-12-24T15:59:26;8.30;99.90
5154;DHT22;2595;53.584;10.084;2022-12-24T16:01:53;8.30;99.90
5154;DHT22;2595;53.584;10.084;2022-12-24T16:04:27;8.40;99.90
5154;DHT22;2595;53.584;10.084;2022-12-24T16:06:57;8.40;99.90
5154;DHT22;2595;53.584;10.084;2022-12-24T16:12:01;8.40;99.90
5154;DHT22;2595;53.584;10.084;2022-12-24T16:14:27;8.50;99.90
5154;DHT22;2595;53.584;10.084;2022-12-24T16:16:53;8.50;99.90
5154;DHT22;2595;53.584;10.084;2022-12-24T16:19:25;8.50;99.90
5154;DHT22;2595;53.584;10.084;2022-12-24T16:22:00;8.50;99.90
5154;DHT22;2595;53.584;10.084;2022-12-24T16:24:46;8.50;99.90
5154;DHT22;2595;53.584;10.084;2022-12-24T16:27:12;8.50;99.90
5154;DHT22;2595;53.584;10.084;2022-12-24T16:29:39;8.60;99.90
5154;DHT22;2595;53.584;10.084;2022-12-24T16:32:04;8.60;99.90
5154;DHT22;2595;53.584;10.084;2022-12-24T16:34:31;8.60;99.90
5154;DHT22;2595;53.584;10.084;2022-12-24T16:36:58;8.60;99.90
5154;DHT22;2595;53.584;10.084;2022-12-24T16:39:34;8.60;99.90
5154;DHT22;2595;53.584;10.084;2022-12-24T16:42:01;8.60;99.90
5154;DHT22;2595;53.584;10.084;2022-12-24T16:44:46;8.60;99.90
5154;DHT22;2595;53.584;10.084;2022-12-24T16:47:18;8.60;99.90
5154;DHT22;2595;53.584;10.084;2022-12-24T16:49:44;8.60;99.90
5154;DHT22;2595;53.584;10.084;2022-12-24T16:52:18;8.50;99.90
5154;DHT22;2595;53.584;10.084;2022-12-24T16:54:46;8.60;99.90
5154;DHT22;2595;53.584;10.084;2022-12-24T16:57:12;8.60;99.90
5154;DHT22;2595;53.584;10.084;2022-12-24T16:59:38;8.60;99.90
5154;DHT22;2595;53.584;10.084;2022-12-24T17:02:04;8.60;99.90
5154;DHT22;2595;53.584;10.084;2022-12-24T17:04:31;8.60;99.90
5154;DHT22;2595;53.584;10.084;2022-12-24T17:06:57;8.60;99.90
5154;DHT22;2595;53.584;10.084;2022-12-24T17:09:23;8.70;99.90
5154;DHT22;2595;53.584;10.084;2022-12-24T17:11:49;8.70;99.90
5154;DHT22;2595;53.584;10.084;2022-12-24T17:14:14;8.70;99.90
5154;DHT22;2595;53.584;10.084;2022-12-24T17:16:40;8.70;99.90
5154;DHT22;2595;53.584;10.084;2022-12-24T17:19:05;8.70;99.90
5154;DHT22;2595;53.584;10.084;2022-12-24T17:21:31;8.70;99.90
5154;DHT22;2595;53.584;10.084;2022-12-24T17:23:57;8.70;99.90
5154;DHT22;2595;53.584;10.084;2022-12-24T17:26:23;8.70;99.90
5154;DHT22;2595;53.584;10.084;2022-12-24T17:28:52;8.70;99.90
5154;DHT22;2595;53.584;10.084;2022-12-24T17:31:19;8.70;99.90
5154;DHT22;2595;53.584;10.084;2022-12-24T17:33:47;8.70;99.90
5154;DHT22;2595;53.584;10.084;2022-12-24T17:36:13;8.70;99.90
5154;DHT22;2595;53.584;10.084;2022-12-24T17:38:39;8.80;99.90
5154;DHT22;2595;53.584;10.084;2022-12-24T17:41:07;8.80;99.90
5154;DHT22;2595;53.584;10.084;2022-12-24T17:43:35;8.80;99.90
5154;DHT22;2595;53.584;10.084;2022-12-24T17:46:12;8.80;99.90
5154;DHT22;2595;53.584;10.084;2022-12-24T17:48:39;8.80;99.90
5154;DHT22;2595;53.584;10.084;2022-12-24T17:51:10;8.80;99.90
5154;DHT22;2595;53.584;10.084;2022-12-24T17:53:37;8.80;99.90
5154;DHT22;2595;53.584;10.084;2022-12-24T17:56:04;8.70;99.90